Time;durP1;ratioP1;P1;durP2;ratioP2;P2;SDS_P1;SDS_P2;PMS_P1;PMS_P2;Temp;Humidity;BMP_temperature;BMP_pressure;BME280_temperature;BME280_humidity;BME280_pressure;Samples;Min_cycle;Max_cycle;Signal;HPM_P1;HPM_P2
2021/05/24 00:00:37;;;;;;;7.43;2.90;;;12.80;99.90;;;;;;5073504;28;20296;-74
2021/05/24 00:03:04;;;;;;;7.63;3.90;;;12.80;99.90;;;;;;5078196;28;20616;-74
2021/05/24 00:05:34;;;;;;;5.07;3.00;;;12.80;99.90;;;;;;5074751;28;20206;-74
2021/05/24 00:08:01;;;;;;;3.07;2.40;;;12.70;99.90;;;;;;5081754;28;20240;-73
2021/05/24 00:10:30;;;;;;;3.60;2.50;;;12.70;99.90;;;;;;5079961;28;20213;-73
2021/05/24 00:13:00;;;;;;;5.23;2.50;;;12.60;99.90;;;;;;5076836;28;20744;-73
2021/05/24 00:15:29;;;;;;;3.07;2.40;;;12.60;99.90;;;;;;5070689;28;20201;-74
2021/05/24 00:17:56;;;;;;;7.63;2.30;;;12.50;99.90;;;;;;5076448;28;20612;-75
2021/05/24 00:20:24;;;;;;;3.67;2.07;;;12.50;99.90;;;;;;5074983;28;20261;-74
2021/05/24 00:22:51;;;;;;;2.23;2.03;;;12.50;99.90;;;;;;5074225;28;20289;-74
2021/05/24 00:25:18;;;;;;;3.53;2.50;;;12.50;99.90;;;;;;5074813;28;20228;-74
2021/05/24 00:27:45;;;;;;;3.23;2.30;;;12.50;99.90;;;;;;5072749;28;20289;-75
2021/05/24 00:30:14;;;;;;;6.20;3.40;;;12.50;99.90;;;;;;5069220;28;20220;-75
2021/05/24 00:32:41;;;;;;;5.93;2.27;;;12.50;99.90;;;;;;5083792;28;20280;-74
2021/05/24 00:35:09;;;;;;;2.23;2.03;;;12.50;99.90;;;;;;5074166;28;20236;-74
2021/05/24 00:37:35;;;;;;;5.10;2.37;;;12.40;99.90;;;;;;5078376;28;20326;-75
2021/05/24 00:40:02;;;;;;;3.13;2.13;;;12.50;99.90;;;;;;5069349;28;20249;-75
2021/05/24 00:42:29;;;;;;;2.70;2.30;;;12.50;99.90;;;;;;5079004;28;20206;-75
2021/05/24 00:44:55;;;;;;;2.73;1.87;;;12.40;99.90;;;;;;5074889;28;20297;-74
2021/05/24 00:47:22;;;;;;;2.47;1.93;;;12.50;99.90;;;;;;5077640;28;20296;-74
2021/05/24 00:49:49;;;;;;;2.80;1.97;;;12.40;99.90;;;;;;5082712;28;20201;-74
2021/05/24 00:52:15;;;;;;;2.07;1.70;;;12.30;99.90;;;;;;5076761;28;20300;-74
2021/05/24 00:54:42;;;;;;;3.27;2.00;;;12.30;99.90;;;;;;5081258;28;20309;-75
2021/05/24 00:57:09;;;;;;;2.07;1.73;;;12.30;99.90;;;;;;5073022;28;20365;-74
2021/05/24 00:59:36;;;;;;;5.47;2.37;;;12.30;99.90;;;;;;5079379;28;20299;-74
2021/05/24 01:02:03;;;;;;;3.10;2.07;;;12.30;99.90;;;;;;5076221;28;20275;-73
2021/05/24 01:04:31;;;;;;;2.10;1.70;;;12.20;99.90;;;;;;5076380;28;20215;-72
2021/05/24 01:06:57;;;;;;;3.27;1.87;;;12.10;99.90;;;;;;5077126;28;20742;-73
2021/05/24 01:09:24;;;;;;;2.87;2.27;;;12.10;99.90;;;;;;5077835;28;20223;-72
2021/05/24 01:11:51;;;;;;;3.57;2.03;;;12.10;99.90;;;;;;5086952;28;20205;-72
2021/05/24 01:14:18;;;;;;;4.47;2.47;;;12.10;99.90;;;;;;5085884;28;20596;-72
2021/05/24 01:16:48;;;;;;;3.13;1.97;;;12.00;99.90;;;;;;5086284;28;20213;-73
2021/05/24 01:19:15;;;;;;;4.07;2.03;;;12.00;99.90;;;;;;5077892;28;20230;-73
2021/05/24 01:21:42;;;;;;;2.20;2.00;;;12.00;99.90;;;;;;5080854;28;20613;-73
2021/05/24 01:24:10;;;;;;;4.67;1.97;;;11.90;99.90;;;;;;5078827;28;20378;-72
2021/05/24 01:26:37;;;;;;;2.27;2.07;;;11.90;99.90;;;;;;5072617;28;20270;-72
2021/05/24 01:29:03;;;;;;;2.20;1.93;;;11.90;99.90;;;;;;5071887;28;20293;-72
2021/05/24 01:31:30;;;;;;;4.33;2.43;;;11.80;99.90;;;;;;5071916;28;20574;-72
2021/05/24 01:33:58;;;;;;;2.87;2.10;;;11.80;99.90;;;;;;5074387;28;20303;-73
2021/05/24 01:36:25;;;;;;;2.30;2.10;;;11.70;99.90;;;;;;5077705;28;20666;-72
2021/05/24 01:38:53;;;;;;;3.90;2.07;;;11.70;99.90;;;;;;5077364;28;20268;-72
2021/05/24 01:41:20;;;;;;;4.43;2.30;;;11.60;99.90;;;;;;5077673;28;20209;-73
2021/05/24 01:43:47;;;;;;;3.90;2.07;;;11.60;99.90;;;;;;5087216;28;20201;-72
2021/05/24 01:46:14;;;;;;;4.67;2.30;;;11.60;99.90;;;;;;5086291;28;20216;-73
2021/05/24 01:48:41;;;;;;;3.73;2.30;;;11.50;99.90;;;;;;5075525;28;20232;-72
2021/05/24 01:51:08;;;;;;;3.83;2.37;;;11.60;99.90;;;;;;5070002;28;20209;-73
2021/05/24 01:53:36;;;;;;;5.03;2.47;;;11.50;99.90;;;;;;5083193;28;20748;-72
2021/05/24 01:56:05;;;;;;;2.53;2.33;;;11.50;99.90;;;;;;5076815;28;20271;-72
2021/05/24 01:58:32;;;;;;;3.77;2.63;;;11.50;99.90;;;;;;5080260;28;20225;-72
2021/05/24 02:01:05;;;;;;;3.50;2.40;;;11.50;99.90;;;;;;5075308;28;20213;-73
2021/05/24 02:03:32;;;;;;;3.70;2.50;;;11.50;99.90;;;;;;5076921;28;20201;-72
2021/05/24 02:06:00;;;;;;;2.63;2.30;;;11.40;99.90;;;;;;5077999;28;20247;-73
2021/05/24 02:08:27;;;;;;;7.60;3.43;;;11.40;99.90;;;;;;5076787;28;20221;-74
2021/05/24 02:10:54;;;;;;;4.50;2.93;;;11.40;99.90;;;;;;5075868;28;20237;-73
2021/05/24 02:13:22;;;;;;;2.93;2.60;;;11.40;99.90;;;;;;5078562;28;20577;-72
2021/05/24 02:15:48;;;;;;;3.47;3.07;;;11.30;99.90;;;;;;5073660;28;20284;-74
2021/05/24 02:18:15;;;;;;;4.10;2.70;;;11.30;99.90;;;;;;5085083;28;20225;-73
2021/05/24 02:20:42;;;;;;;4.27;2.90;;;11.30;99.90;;;;;;5071794;28;20288;-72
2021/05/24 02:23:10;;;;;;;4.87;3.10;;;11.20;99.90;;;;;;5076390;28;20612;-73
2021/05/24 02:25:36;;;;;;;3.57;3.07;;;11.30;99.90;;;;;;5072818;28;20237;-73
2021/05/24 02:28:03;;;;;;;3.53;2.80;;;11.20;99.90;;;;;;5084929;28;20232;-72
2021/05/24 02:30:31;;;;;;;4.73;3.00;;;11.10;99.90;;;;;;5073435;28;20225;-72
2021/05/24 02:32:58;;;;;;;5.57;3.23;;;11.10;99.90;;;;;;5075389;28;20538;-73
2021/05/24 02:35:26;;;;;;;3.80;3.43;;;11.10;99.90;;;;;;5076124;28;20204;-73
2021/05/24 02:37:54;;;;;;;7.13;3.30;;;11.10;99.90;;;;;;5090709;28;20259;-73
2021/05/24 02:40:21;;;;;;;3.90;3.47;;;11.10;99.90;;;;;;5078536;28;20659;-74
2021/05/24 02:42:50;;;;;;;4.07;3.40;;;11.10;99.90;;;;;;5079429;28;20204;-73
2021/05/24 02:45:19;;;;;;;4.83;3.20;;;11.10;99.90;;;;;;5083118;28;20287;-72
2021/05/24 02:47:47;;;;;;;4.00;3.23;;;11.00;99.90;;;;;;5074133;28;20284;-72
2021/05/24 02:50:17;;;;;;;3.83;3.47;;;11.00;99.90;;;;;;5088397;28;20208;-72
2021/05/24 02:52:43;;;;;;;5.33;3.63;;;11.00;99.90;;;;;;5078999;28;20291;-72
2021/05/24 02:55:10;;;;;;;5.20;3.53;;;11.00;99.90;;;;;;5072025;28;20289;-73
2021/05/24 02:57:37;;;;;;;5.37;3.33;;;11.00;99.90;;;;;;5084683;28;20279;-71
2021/05/24 03:00:06;;;;;;;3.97;3.53;;;11.00;99.90;;;;;;5075981;28;20705;-73
2021/05/24 03:02:32;;;;;;;4.27;3.67;;;11.00;99.90;;;;;;5086928;28;20235;-73
2021/05/24 03:04:59;;;;;;;4.83;3.67;;;11.00;99.90;;;;;;5083636;28;20212;-72
2021/05/24 03:07:26;;;;;;;3.73;3.40;;;11.10;99.90;;;;;;5081380;28;20292;-72
2021/05/24 03:09:53;;;;;;;4.70;3.53;;;11.10;99.90;;;;;;5079165;28;20221;-73
2021/05/24 03:12:19;;;;;;;4.43;3.37;;;11.20;99.90;;;;;;5077458;28;20209;-73
2021/05/24 03:14:46;;;;;;;3.70;3.27;;;11.20;99.90;;;;;;5078223;28;20225;-71
2021/05/24 03:17:12;;;;;;;4.90;3.40;;;11.30;99.90;;;;;;5076255;28;20657;-72
2021/05/24 03:19:39;;;;;;;4.20;3.80;;;11.40;99.90;;;;;;5080402;28;20239;-72
2021/05/24 03:22:06;;;;;;;7.33;4.20;;;11.50;99.90;;;;;;5072591;28;20208;-72
2021/05/24 03:24:32;;;;;;;3.83;3.23;;;11.50;99.90;;;;;;5073097;28;20300;-72
2021/05/24 03:26:59;;;;;;;5.20;3.33;;;11.60;99.90;;;;;;5075724;28;20347;-71
2021/05/24 03:29:25;;;;;;;4.20;3.27;;;11.60;99.90;;;;;;5074576;28;20682;-72
2021/05/24 03:31:51;;;;;;;4.77;3.77;;;11.70;99.90;;;;;;5079799;28;20217;-72
2021/05/24 03:34:18;;;;;;;4.33;3.50;;;11.80;99.90;;;;;;5082436;28;20216;-72
2021/05/24 03:36:44;;;;;;;6.07;4.20;;;11.80;99.90;;;;;;5083374;28;20311;-74
2021/05/24 03:39:11;;;;;;;5.60;3.80;;;11.90;99.90;;;;;;5081660;28;20725;-72
2021/05/24 03:41:38;;;;;;;3.90;3.50;;;11.90;99.90;;;;;;5082072;28;20201;-71
2021/05/24 03:44:05;;;;;;;5.10;3.67;;;12.00;99.90;;;;;;5078969;28;20209;-72
2021/05/24 03:46:32;;;;;;;4.93;3.87;;;12.00;99.90;;;;;;5091343;28;20259;-72
2021/05/24 03:49:00;;;;;;;5.23;4.20;;;12.10;99.90;;;;;;5080091;28;20227;-73
2021/05/24 03:51:26;;;;;;;5.30;3.93;;;12.10;99.90;;;;;;5073584;28;20268;-72
2021/05/24 03:53:53;;;;;;;5.83;3.80;;;12.10;99.90;;;;;;5078868;28;20653;-72
2021/05/24 03:56:20;;;;;;;4.43;3.43;;;12.20;99.90;;;;;;5090050;28;20243;-71
2021/05/24 03:58:47;;;;;;;6.87;4.07;;;12.20;99.90;;;;;;5077308;28;20229;-73
2021/05/24 04:01:14;;;;;;;4.83;4.03;;;12.20;99.90;;;;;;5074782;28;20636;-72
2021/05/24 04:03:40;;;;;;;4.37;3.50;;;12.30;99.90;;;;;;5082589;28;20209;-72
2021/05/24 04:06:09;;;;;;;6.53;3.60;;;12.40;99.90;;;;;;5073356;28;20232;-72
2021/05/24 04:08:37;;;;;;;4.97;3.83;;;12.40;99.90;;;;;;5073372;28;20210;-72
2021/05/24 04:11:05;;;;;;;4.43;3.90;;;12.50;99.90;;;;;;5085836;28;20250;-72
2021/05/24 04:13:32;;;;;;;4.20;3.80;;;12.50;99.90;;;;;;5086090;28;20221;-72
2021/05/24 04:15:59;;;;;;;4.57;3.70;;;12.50;99.90;;;;;;5077346;28;20299;-73
2021/05/24 04:18:28;;;;;;;5.07;3.50;;;12.50;99.90;;;;;;5081087;28;20262;-73
2021/05/24 04:20:54;;;;;;;4.53;3.80;;;12.50;99.90;;;;;;5082367;28;20286;-72
2021/05/24 04:23:21;;;;;;;10.50;4.20;;;12.60;99.90;;;;;;5071083;28;20288;-72
2021/05/24 04:25:47;;;;;;;5.43;4.23;;;12.60;99.90;;;;;;5075195;28;20211;-72
2021/05/24 04:28:15;;;;;;;5.80;4.00;;;12.70;99.90;;;;;;5079685;28;20223;-73
2021/05/24 04:30:42;;;;;;;5.87;4.07;;;12.80;99.90;;;;;;5078323;28;20285;-73
2021/05/24 04:33:09;;;;;;;4.50;3.87;;;12.90;99.90;;;;;;5080541;28;20212;-72
2021/05/24 04:35:35;;;;;;;5.70;3.87;;;13.00;99.90;;;;;;5082962;28;20231;-72
2021/05/24 04:38:02;;;;;;;4.60;3.60;;;13.10;99.90;;;;;;5097115;28;20702;-72
2021/05/24 04:40:29;;;;;;;7.03;4.07;;;13.10;99.90;;;;;;5074917;28;20301;-72
2021/05/24 04:42:56;;;;;;;4.70;3.80;;;13.20;99.90;;;;;;5094213;28;20295;-73
2021/05/24 04:45:22;;;;;;;5.10;3.73;;;13.20;99.90;;;;;;5075998;28;20201;-72
2021/05/24 04:47:50;;;;;;;6.37;3.97;;;13.40;99.90;;;;;;5078402;28;20655;-72
2021/05/24 04:50:16;;;;;;;5.67;3.43;;;13.40;99.90;;;;;;5086770;28;20209;-72
2021/05/24 04:52:43;;;;;;;4.33;3.73;;;13.50;99.90;;;;;;5080732;28;20215;-72
2021/05/24 04:55:10;;;;;;;5.70;4.10;;;13.50;99.90;;;;;;5080956;28;20236;-73
2021/05/24 04:57:37;;;;;;;7.00;3.97;;;13.60;99.90;;;;;;5079493;28;20233;-72
2021/05/24 05:00:05;;;;;;;4.57;4.13;;;13.60;99.90;;;;;;5078908;28;20598;-72
2021/05/24 05:02:31;;;;;;;4.47;3.73;;;13.70;99.90;;;;;;5073076;28;20213;-72
2021/05/24 05:04:59;;;;;;;5.27;3.60;;;13.80;99.90;;;;;;5078835;28;20232;-72
2021/05/24 05:07:27;;;;;;;6.10;3.87;;;13.90;99.90;;;;;;5083464;28;20237;-73
2021/05/24 05:09:53;;;;;;;5.47;3.50;;;14.00;99.90;;;;;;5079884;28;20229;-73
2021/05/24 05:12:20;;;;;;;6.43;3.47;;;14.10;99.90;;;;;;5081286;28;20330;-76
2021/05/24 05:14:46;;;;;;;6.10;4.33;;;14.20;99.90;;;;;;5077687;28;20233;-73
2021/05/24 05:17:13;;;;;;;3.20;2.90;;;14.20;99.90;;;;;;5091213;28;20231;-73
2021/05/24 05:19:39;;;;;;;5.83;3.27;;;14.30;99.90;;;;;;5083258;28;20678;-73
2021/05/24 05:22:07;;;;;;;5.23;3.50;;;14.30;99.90;;;;;;5081608;28;20577;-71
2021/05/24 05:24:33;;;;;;;5.27;3.00;;;14.30;99.90;;;;;;5078309;28;20219;-73
2021/05/24 05:27:00;;;;;;;4.60;3.10;;;14.40;99.90;;;;;;5081693;28;21181;-73
2021/05/24 05:29:26;;;;;;;5.60;3.50;;;14.50;99.90;;;;;;5083426;28;20261;-72
2021/05/24 05:31:53;;;;;;;3.73;3.33;;;14.50;99.90;;;;;;5079529;28;20232;-73
2021/05/24 05:34:19;;;;;;;4.20;3.07;;;14.60;99.90;;;;;;5081612;28;20235;-73
2021/05/24 05:36:46;;;;;;;5.50;4.27;;;14.70;99.90;;;;;;5074109;28;20288;-73
2021/05/24 05:39:13;;;;;;;6.77;3.77;;;14.70;99.90;;;;;;5087329;28;20204;-74
2021/05/24 05:41:40;;;;;;;4.70;3.10;;;14.80;99.90;;;;;;5084842;28;20644;-71
2021/05/24 05:44:07;;;;;;;4.57;3.47;;;14.80;99.90;;;;;;5075976;28;20208;-71
2021/05/24 05:46:34;;;;;;;7.80;3.20;;;14.90;99.90;;;;;;5085122;28;20697;-70
2021/05/24 05:49:00;;;;;;;3.70;2.97;;;15.00;99.90;;;;;;5080799;28;20212;-70
2021/05/24 05:51:27;;;;;;;5.40;3.40;;;15.10;99.90;;;;;;5083218;28;20299;-70
2021/05/24 05:53:55;;;;;;;7.23;3.50;;;15.20;99.90;;;;;;5086678;28;20669;-70
2021/05/24 05:56:23;;;;;;;6.87;3.57;;;15.30;99.90;;;;;;5085155;28;20231;-71
2021/05/24 05:58:49;;;;;;;7.70;3.30;;;15.30;99.90;;;;;;5076541;28;20228;-71
2021/05/24 06:01:15;;;;;;;7.13;3.13;;;15.40;99.90;;;;;;5073734;28;20780;-72
2021/05/24 06:03:42;;;;;;;7.57;3.97;;;15.50;99.90;;;;;;5072475;28;20202;-66
2021/05/24 06:06:09;;;;;;;7.30;3.90;;;15.50;99.90;;;;;;5081471;28;20734;-67
2021/05/24 06:08:35;;;;;;;7.30;3.90;;;15.60;99.90;;;;;;5085307;28;20775;-65
2021/05/24 06:11:02;;;;;;;5.67;3.67;;;15.70;99.90;;;;;;5076247;28;20675;-66
2021/05/24 06:13:29;;;;;;;4.20;3.30;;;15.80;99.90;;;;;;5084507;28;20228;-66
2021/05/24 06:15:55;;;;;;;4.87;2.43;;;15.90;99.90;;;;;;5087133;28;20213;-67
2021/05/24 06:18:22;;;;;;;4.13;2.30;;;16.00;99.90;;;;;;5077629;28;20312;-67
2021/05/24 06:20:49;;;;;;;3.13;2.13;;;16.00;99.90;;;;;;5079233;28;20714;-67
2021/05/24 06:23:15;;;;;;;8.10;3.70;;;16.00;99.90;;;;;;5072930;28;20575;-67
2021/05/24 06:25:44;;;;;;;4.27;2.67;;;16.10;99.90;;;;;;5078209;28;20235;-67
2021/05/24 06:28:11;;;;;;;3.23;2.37;;;16.10;99.90;;;;;;5067516;28;20205;-67
2021/05/24 06:30:38;;;;;;;2.60;2.07;;;16.10;99.90;;;;;;5072781;28;20304;-68
2021/05/24 06:33:05;;;;;;;2.00;1.80;;;16.10;99.90;;;;;;5086512;28;20201;-69
2021/05/24 06:35:32;;;;;;;3.73;2.00;;;16.10;99.90;;;;;;5083850;28;20236;-66
2021/05/24 06:37:58;;;;;;;1.93;1.70;;;16.10;99.90;;;;;;5080918;28;20673;-66
2021/05/24 06:40:24;;;;;;;3.33;1.73;;;16.20;99.80;;;;;;5076779;28;20829;-66
2021/05/24 06:42:51;;;;;;;4.70;1.63;;;16.30;99.70;;;;;;5075952;28;20200;-67
2021/05/24 06:45:19;;;;;;;3.07;1.87;;;16.30;99.40;;;;;;5076324;28;20702;-68
2021/05/24 06:47:47;;;;;;;2.03;1.53;;;16.40;98.60;;;;;;5080913;28;20457;-67
2021/05/24 06:50:15;;;;;;;1.90;1.67;;;16.40;98.50;;;;;;5077963;28;20205;-67
2021/05/24 06:52:42;;;;;;;2.77;1.63;;;16.40;98.40;;;;;;5079063;28;20618;-68
2021/05/24 06:55:10;;;;;;;1.67;1.57;;;16.50;98.60;;;;;;5081069;28;20275;-69
2021/05/24 06:57:36;;;;;;;3.03;1.57;;;16.60;98.10;;;;;;5079328;28;20690;-65
2021/05/24 07:00:05;;;;;;;1.73;0.93;;;16.60;97.20;;;;;;5082015;28;20285;-67
2021/05/24 07:02:32;;;;;;;2.10;1.50;;;16.60;95.20;;;;;;5079399;28;20213;-66
2021/05/24 07:04:59;;;;;;;3.23;1.70;;;16.70;95.10;;;;;;5088443;28;20681;-67
2021/05/24 07:07:25;;;;;;;3.70;1.80;;;16.70;94.60;;;;;;5085317;28;20197;-67
2021/05/24 07:09:52;;;;;;;6.00;2.10;;;16.70;94.70;;;;;;5080573;28;20296;-68
2021/05/24 07:12:18;;;;;;;4.57;1.70;;;16.80;95.10;;;;;;5080282;28;20591;-67
2021/05/24 07:14:47;;;;;;;3.23;1.50;;;16.90;94.90;;;;;;5084990;28;20321;-67
2021/05/24 07:17:14;;;;;;;1.50;1.40;;;16.90;93.90;;;;;;5075703;28;20256;-67
2021/05/24 07:19:40;;;;;;;2.70;1.50;;;17.00;93.80;;;;;;5071675;28;20696;-67
2021/05/24 07:22:07;;;;;;;2.60;1.30;;;17.00;93.50;;;;;;5072600;28;20982;-66
2021/05/24 07:24:34;;;;;;;3.03;1.57;;;17.10;93.40;;;;;;5072645;28;20215;-69
2021/05/24 07:27:00;;;;;;;1.00;0.90;;;17.20;92.90;;;;;;5069621;28;20687;-67
2021/05/24 07:29:27;;;;;;;2.27;1.30;;;17.30;92.60;;;;;;5069369;28;20237;-68
2021/05/24 07:31:54;;;;;;;1.73;1.23;;;17.40;92.20;;;;;;5069547;28;20201;-67
2021/05/24 07:34:20;;;;;;;1.83;1.00;;;17.50;91.20;;;;;;5076142;28;20208;-68
2021/05/24 07:36:47;;;;;;;1.87;1.00;;;17.50;90.80;;;;;;5071407;28;20680;-67
2021/05/24 07:39:14;;;;;;;2.80;1.20;;;17.60;90.30;;;;;;5074262;28;20235;-67
2021/05/24 07:41:40;;;;;;;3.10;1.43;;;17.60;88.90;;;;;;5082381;28;20328;-66
2021/05/24 07:44:07;;;;;;;1.87;1.13;;;17.80;88.50;;;;;;5074023;28;20208;-70
2021/05/24 07:46:34;;;;;;;6.00;1.30;;;17.90;88.80;;;;;;5076498;28;20224;-67
2021/05/24 07:49:00;;;;;;;1.23;1.10;;;18.10;88.60;;;;;;5068813;28;20515;-70
2021/05/24 07:51:27;;;;;;;2.70;1.30;;;18.30;87.20;;;;;;5069330;28;20209;-68
2021/05/24 07:53:54;;;;;;;2.20;1.03;;;18.40;86.10;;;;;;5070764;28;20624;-69
2021/05/24 07:56:21;;;;;;;1.67;0.70;;;18.60;84.60;;;;;;5073975;28;20324;-67
2021/05/24 07:58:47;;;;;;;1.27;0.90;;;18.70;81.90;;;;;;5069163;28;20229;-69
2021/05/24 08:01:14;;;;;;;1.37;0.90;;;18.70;80.20;;;;;;5074954;28;20200;-66
2021/05/24 08:03:40;;;;;;;3.33;1.40;;;18.70;79.60;;;;;;5091619;28;20247;-66
2021/05/24 08:06:07;;;;;;;1.47;1.10;;;18.80;79.00;;;;;;5076675;28;20599;-69
2021/05/24 08:08:33;;;;;;;2.87;1.10;;;18.90;78.40;;;;;;5082659;28;20229;-68
2021/05/24 08:11:00;;;;;;;0.93;0.80;;;19.00;78.20;;;;;;5085126;28;20595;-68
2021/05/24 08:13:30;;;;;;;1.48;0.93;;;19.00;77.10;;;;;;5091315;28;20530;-68
2021/05/24 08:15:56;;;;;;;1.85;1.00;;;19.00;75.30;;;;;;5081733;28;20201;-67
2021/05/24 08:18:23;;;;;;;1.43;1.07;;;19.10;75.40;;;;;;5073001;28;20309;-68
2021/05/24 08:20:50;;;;;;;0.80;0.80;;;19.20;74.10;;;;;;5073860;28;20201;-69
2021/05/24 08:23:17;;;;;;;1.27;0.60;;;19.40;73.60;;;;;;5073321;28;20273;-71
2021/05/24 08:25:43;;;;;;;2.57;0.70;;;19.30;70.50;;;;;;5071549;28;20211;-68
2021/05/24 08:28:10;;;;;;;2.17;0.60;;;19.20;70.10;;;;;;5070293;28;20216;-69
2021/05/24 08:30:37;;;;;;;1.08;0.70;;;19.30;70.60;;;;;;5079399;28;20208;-67
2021/05/24 08:33:03;;;;;;;1.15;0.90;;;19.40;69.90;;;;;;5084529;28;20225;-69
2021/05/24 08:35:30;;;;;;;1.65;0.80;;;19.40;69.30;;;;;;5080775;28;20240;-68
2021/05/24 08:37:56;;;;;;;1.13;1.00;;;19.50;70.00;;;;;;5075522;28;20558;-68
2021/05/24 08:40:23;;;;;;;0.90;0.80;;;19.60;69.70;;;;;;5083491;28;20360;-68
2021/05/24 08:42:50;;;;;;;1.52;0.95;;;19.80;69.40;;;;;;5085068;28;20243;-66
2021/05/24 08:45:16;;;;;;;1.40;0.90;;;19.90;69.40;;;;;;5090963;28;20208;-67
2021/05/24 08:47:44;;;;;;;0.82;0.80;;;20.00;68.00;;;;;;5080765;28;20220;-68
2021/05/24 08:50:12;;;;;;;2.15;0.90;;;20.10;67.20;;;;;;5080703;28;20296;-67
2021/05/24 08:52:39;;;;;;;0.90;0.90;;;20.30;66.40;;;;;;5075017;28;20237;-66
2021/05/24 08:55:07;;;;;;;2.45;1.08;;;20.50;66.70;;;;;;5075988;28;20264;-67
2021/05/24 08:57:36;;;;;;;4.90;1.05;;;20.70;67.40;;;;;;5078921;28;20258;-67
2021/05/24 09:00:04;;;;;;;2.97;1.00;;;20.90;66.30;;;;;;5079718;28;20721;-68
2021/05/24 09:02:31;;;;;;;0.98;0.90;;;21.10;65.00;;;;;;5071418;28;20251;-65
2021/05/24 09:05:04;;;;;;;1.17;0.75;;;21.30;63.50;;;;;;5075976;28;20296;-67
2021/05/24 09:07:30;;;;;;;1.52;0.80;;;21.50;62.10;;;;;;5074145;28;20205;-68
2021/05/24 09:10:01;;;;;;;2.67;0.70;;;21.50;61.40;;;;;;5078404;28;20709;-68
2021/05/24 09:12:32;;;;;;;1.10;1.00;;;21.40;61.70;;;;;;5077809;28;20262;-67
2021/05/24 09:15:00;;;;;;;3.58;0.90;;;21.40;62.00;;;;;;5081166;28;20229;-68
2021/05/24 09:17:41;;;;;;;1.35;1.10;;;21.50;62.20;;;;;;5076480;28;20233;-67
2021/05/24 09:20:25;;;;;;;1.10;1.00;;;21.50;61.40;;;;;;5072478;28;20233;-67
2021/05/24 09:23:10;;;;;;;2.17;1.13;;;21.60;61.10;;;;;;5084472;28;21679;-67
2021/05/24 09:25:54;;;;;;;1.00;0.95;;;21.70;59.90;;;;;;5080543;28;20274;-67
2021/05/24 09:28:29;;;;;;;2.28;1.20;;;21.70;57.40;;;;;;5080851;28;20323;-67
2021/05/24 09:30:57;;;;;;;1.27;1.17;;;21.70;57.00;;;;;;5073428;28;20563;-67
2021/05/24 09:33:24;;;;;;;2.45;1.70;;;21.70;56.90;;;;;;5078172;28;20224;-67
2021/05/24 09:35:53;;;;;;;1.67;1.50;;;21.80;57.20;;;;;;5078192;28;20254;-67
2021/05/24 09:38:20;;;;;;;1.85;1.05;;;21.90;57.50;;;;;;5076548;28;20227;-66
2021/05/24 09:40:54;;;;;;;1.95;1.60;;;22.00;57.40;;;;;;5078440;28;20232;-68
2021/05/24 09:43:32;;;;;;;1.20;1.10;;;22.10;57.20;;;;;;5086973;28;20204;-66
2021/05/24 09:46:08;;;;;;;2.65;1.20;;;22.30;57.60;;;;;;5084642;28;20205;-67
2021/05/24 09:48:35;;;;;;;1.98;1.48;;;22.50;56.80;;;;;;5081013;28;20201;-67
2021/05/24 09:51:05;;;;;;;1.50;1.17;;;22.60;56.80;;;;;;5075808;28;20567;-68
2021/05/24 09:53:32;;;;;;;0.95;0.70;;;22.80;56.00;;;;;;5070095;28;20196;-68
2021/05/24 09:56:06;;;;;;;1.17;1.00;;;22.90;55.70;;;;;;5080058;28;20241;-67
2021/05/24 09:58:33;;;;;;;1.02;0.90;;;23.10;55.20;;;;;;5080687;28;20692;-67
2021/05/24 10:01:13;;;;;;;1.02;0.90;;;23.20;54.50;;;;;;5078213;28;20223;-67
2021/05/24 10:03:41;;;;;;;1.00;0.90;;;23.20;53.90;;;;;;5075851;28;20225;-67
2021/05/24 10:06:09;;;;;;;1.45;1.10;;;23.00;53.80;;;;;;5075325;28;20205;-68
2021/05/24 10:08:36;;;;;;;3.30;1.10;;;23.00;54.40;;;;;;5080067;28;20196;-69
2021/05/24 10:11:04;;;;;;;0.88;0.88;;;23.00;54.80;;;;;;5078352;28;20220;-68
2021/05/24 10:13:31;;;;;;;1.05;1.00;;;23.20;54.50;;;;;;5081762;28;20224;-67
2021/05/24 10:16:02;;;;;;;0.93;0.90;;;23.40;54.10;;;;;;5075639;28;20291;-69
2021/05/24 10:18:30;;;;;;;0.98;0.90;;;23.50;53.20;;;;;;5076584;28;20213;-66
2021/05/24 10:21:00;;;;;;;0.85;0.85;;;23.60;52.80;;;;;;5074000;28;20204;-67
2021/05/24 10:23:27;;;;;;;1.00;0.90;;;23.70;52.00;;;;;;5083669;28;20428;-66
2021/05/24 10:25:57;;;;;;;2.45;1.27;;;23.80;52.00;;;;;;5077348;28;20554;-66
2021/05/24 10:28:24;;;;;;;1.17;1.08;;;24.00;51.80;;;;;;5073671;28;20228;-66
2021/05/24 10:30:51;;;;;;;0.80;0.75;;;24.00;51.40;;;;;;5071968;28;20619;-67
2021/05/24 10:33:20;;;;;;;1.27;1.00;;;24.00;51.30;;;;;;5069483;28;20216;-67
2021/05/24 10:35:47;;;;;;;1.85;1.08;;;24.10;51.20;;;;;;5073567;28;20245;-67
2021/05/24 10:38:32;;;;;;;3.80;1.10;;;24.10;50.50;;;;;;5080916;28;20250;-69
2021/05/24 10:41:08;;;;;;;2.10;0.90;;;24.10;50.60;;;;;;5080599;28;20240;-70
2021/05/24 10:43:47;;;;;;;1.75;0.70;;;24.10;50.30;;;;;;5077511;28;20204;-69
2021/05/24 10:46:35;;;;;;;0.93;0.60;;;24.20;50.10;;;;;;5074075;28;20229;-70
2021/05/24 10:49:05;;;;;;;0.57;0.57;;;24.20;49.30;;;;;;5073056;28;20209;-67
2021/05/24 10:51:58;;;;;;;2.25;1.00;;;24.10;49.30;;;;;;5073434;28;20610;-67
2021/05/24 10:54:43;;;;;;;2.17;0.73;;;24.00;49.10;;;;;;5072368;28;20237;-66
2021/05/24 10:57:17;;;;;;;2.72;0.90;;;23.80;48.90;;;;;;5070436;28;20252;-67
2021/05/24 11:00:01;;;;;;;1.10;0.70;;;23.40;49.50;;;;;;5071308;28;20231;-67
2021/05/24 11:02:52;;;;;;;5.10;0.68;;;23.30;50.20;;;;;;5072249;28;20283;-66
2021/05/24 11:05:30;;;;;;;0.70;0.43;;;23.30;49.00;;;;;;5086937;28;20207;-69
2021/05/24 11:07:59;;;;;;;0.90;0.70;;;23.30;48.60;;;;;;5067528;28;20197;-66
2021/05/24 11:10:45;;;;;;;2.63;0.65;;;23.30;48.90;;;;;;5074056;28;20283;-67
2021/05/24 11:13:26;;;;;;;2.42;0.63;;;23.30;49.60;;;;;;5064148;28;20200;-65
2021/05/24 11:15:53;;;;;;;2.35;0.80;;;23.30;49.70;;;;;;5082760;28;20219;-67
2021/05/24 11:18:26;;;;;;;0.85;0.50;;;23.20;50.10;;;;;;5071631;28;20225;-68
2021/05/24 11:20:58;;;;;;;0.80;0.68;;;23.20;50.50;;;;;;5072503;28;20647;-67
2021/05/24 11:23:36;;;;;;;0.52;0.52;;;23.30;50.40;;;;;;5070949;28;20259;-68
2021/05/24 11:26:31;;;;;;;4.88;0.90;;;23.30;50.10;;;;;;5072263;28;20209;-68
2021/05/24 11:29:07;;;;;;;0.80;0.70;;;23.30;49.90;;;;;;5073025;28;20764;-68
2021/05/24 11:31:47;;;;;;;1.70;0.80;;;23.30;50.00;;;;;;5073872;28;20221;-72
2021/05/24 11:34:34;;;;;;;1.25;0.70;;;23.10;50.20;;;;;;5061375;28;20247;-69
2021/05/24 11:37:03;;;;;;;1.77;0.80;;;23.00;50.60;;;;;;5072607;28;20205;-70
2021/05/24 11:39:32;;;;;;;1.35;0.77;;;23.00;50.60;;;;;;5072901;28;20320;-66
2021/05/24 11:42:01;;;;;;;1.13;0.90;;;23.10;50.70;;;;;;5069216;28;20205;-67
2021/05/24 11:44:33;;;;;;;1.45;0.88;;;23.10;50.90;;;;;;5072093;28;20208;-68
2021/05/24 11:47:01;;;;;;;1.90;0.88;;;23.10;50.80;;;;;;5071718;28;20258;-68
2021/05/24 11:49:34;;;;;;;1.40;0.88;;;23.00;51.00;;;;;;5069213;28;20213;-68
2021/05/24 11:52:01;;;;;;;2.10;0.93;;;23.00;51.30;;;;;;5053371;28;20615;-67
2021/05/24 11:54:27;;;;;;;2.63;0.90;;;23.00;51.20;;;;;;5065415;28;20263;-66
2021/05/24 11:56:56;;;;;;;1.35;0.60;;;23.10;50.80;;;;;;5072195;28;20286;-64
2021/05/24 11:59:25;;;;;;;1.05;0.70;;;23.00;50.60;;;;;;5070467;28;20679;-67
2021/05/24 12:01:53;;;;;;;1.92;0.60;;;22.90;50.20;;;;;;5071447;28;20209;-66
2021/05/24 12:04:21;;;;;;;0.75;0.50;;;22.70;50.70;;;;;;5075479;28;20673;-66
2021/05/24 12:06:50;;;;;;;2.72;0.80;;;22.70;50.80;;;;;;5082251;28;20228;-66
2021/05/24 12:09:33;;;;;;;0.95;0.60;;;22.60;50.70;;;;;;5071401;28;20263;-66
2021/05/24 12:12:01;;;;;;;0.65;0.60;;;22.60;50.80;;;;;;5082647;28;20204;-67
2021/05/24 12:14:28;;;;;;;2.05;0.73;;;22.40;50.70;;;;;;5076553;28;20314;-68
2021/05/24 12:16:56;;;;;;;1.05;0.70;;;22.40;50.60;;;;;;5070997;28;20201;-66
2021/05/24 12:19:24;;;;;;;1.08;0.80;;;22.30;50.40;;;;;;5070283;28;20235;-66
2021/05/24 12:21:50;;;;;;;0.68;0.60;;;22.20;50.50;;;;;;5067427;28;20308;-66
2021/05/24 12:24:19;;;;;;;0.73;0.65;;;22.20;50.70;;;;;;5072272;28;20247;-66
2021/05/24 12:26:48;;;;;;;1.45;0.80;;;22.20;51.00;;;;;;5070975;28;20292;-67
2021/05/24 12:29:23;;;;;;;0.77;0.70;;;22.20;51.20;;;;;;5073331;28;20201;-67
2021/05/24 12:31:52;;;;;;;0.85;0.70;;;22.20;51.10;;;;;;5078101;28;20280;-64
2021/05/24 12:34:25;;;;;;;1.85;0.80;;;22.10;51.30;;;;;;5080815;28;20205;-69
2021/05/24 12:36:56;;;;;;;2.40;0.80;;;22.10;51.30;;;;;;5086362;28;20215;-67
2021/05/24 12:39:25;;;;;;;1.85;0.98;;;22.10;51.00;;;;;;5072608;28;20213;-67
2021/05/24 12:41:55;;;;;;;1.02;0.70;;;22.20;50.70;;;;;;5078094;28;20197;-66
2021/05/24 12:44:23;;;;;;;0.50;0.50;;;22.30;50.60;;;;;;5079136;28;20213;-67
2021/05/24 12:46:53;;;;;;;2.00;1.00;;;22.40;50.10;;;;;;5072386;28;20614;-71
2021/05/24 12:49:22;;;;;;;2.63;0.80;;;22.60;49.70;;;;;;5078358;28;20201;-70
2021/05/24 12:51:59;;;;;;;0.80;0.60;;;22.70;49.50;;;;;;5079729;28;20278;-67
2021/05/24 12:54:26;;;;;;;3.08;0.80;;;22.80;49.30;;;;;;5069303;28;20684;-67